Time;durP1;ratioP1;P1;durP2;ratioP2;P2;SDS_P1;SDS_P2;PMS_P1;PMS_P2;Temp;Humidity;BMP_temperature;BMP_pressure;BME280_temperature;BME280_humidity;BME280_pressure;Samples;Min_cycle;Max_cycle;Signal;HPM_P1;HPM_P2
2021/07/26 00:03:17;;;;;;;46.70;43.75;;;14.80;99.90;;;;;;8296527;28;20068;-63
2021/07/26 00:07:17;;;;;;;47.55;44.67;;;15.00;99.90;;;;;;8296127;28;20131;-63
2021/07/26 00:11:18;;;;;;;49.30;46.22;;;15.00;99.90;;;;;;8296375;28;20022;-62
2021/07/26 00:15:18;;;;;;;45.42;42.63;;;15.10;99.90;;;;;;8296651;28;20025;-62
2021/07/26 00:19:19;;;;;;;46.90;43.95;;;15.30;99.90;;;;;;8295611;28;20022;-63
2021/07/26 00:23:20;;;;;;;49.33;46.35;;;15.20;99.90;;;;;;8295735;28;20037;-63
2021/07/26 00:27:21;;;;;;;48.17;45.30;;;15.00;99.90;;;;;;8296425;28;20038;-63
2021/07/26 00:31:21;;;;;;;51.75;48.63;;;15.30;99.90;;;;;;8295472;28;20042;-63
2021/07/26 00:35:22;;;;;;;51.40;48.33;;;15.30;99.90;;;;;;8320521;28;20029;-63
2021/07/26 00:39:28;;;;;;;49.70;46.72;;;15.30;99.90;;;;;;8310722;28;20473;-63
2021/07/26 00:43:29;;;;;;;49.95;46.97;;;15.20;99.90;;;;;;8328293;28;20022;-63
2021/07/26 00:47:29;;;;;;;49.03;46.13;;;15.20;99.90;;;;;;8328753;28;20033;-63
2021/07/26 00:51:31;;;;;;;53.92;50.75;;;15.20;99.90;;;;;;8315447;28;20034;-63
2021/07/26 00:55:32;;;;;;;54.15;50.97;;;15.10;99.90;;;;;;8295658;28;20037;-63
2021/07/26 00:59:34;;;;;;;54.67;51.42;;;15.00;99.90;;;;;;8295700;28;20030;-63
2021/07/26 01:03:34;;;;;;;56.50;53.13;;;15.00;99.90;;;;;;8295445;28;20587;-63
2021/07/26 01:07:35;;;;;;;54.25;51.00;;;15.00;99.90;;;;;;8277679;28;20030;-62
2021/07/26 01:11:35;;;;;;;59.50;56.05;;;15.10;99.90;;;;;;8294250;28;20110;-62
2021/07/26 01:15:36;;;;;;;55.72;52.45;;;15.00;99.90;;;;;;8295105;28;20029;-63
2021/07/26 01:19:36;;;;;;;52.97;49.88;;;14.90;99.90;;;;;;8294699;28;20432;-63
2021/07/26 01:23:39;;;;;;;49.80;46.83;;;15.00;99.90;;;;;;8294338;28;20037;-63
2021/07/26 01:27:39;;;;;;;53.25;50.15;;;15.00;99.90;;;;;;8294639;28;20037;-63
2021/07/26 01:31:40;;;;;;;50.72;47.67;;;14.90;99.90;;;;;;8275638;28;20030;-63
2021/07/26 01:35:41;;;;;;;51.60;48.50;;;14.90;99.90;;;;;;8294372;28;20095;-63
2021/07/26 01:39:41;;;;;;;55.35;52.17;;;14.90;99.90;;;;;;8294092;28;20030;-63
2021/07/26 01:48:25;;;;;;;49.17;46.25;;;15.20;99.90;;;;;;8294645;28;20518;-63
2021/07/26 01:52:26;;;;;;;47.90;45.00;;;15.20;99.90;;;;;;8293584;28;20022;-63
2021/07/26 01:56:27;;;;;;;48.03;45.08;;;15.20;99.90;;;;;;8293219;28;20105;-63
2021/07/26 02:00:28;;;;;;;45.78;42.95;;;15.30;99.90;;;;;;8293480;28;20109;-63
2021/07/26 02:04:28;;;;;;;47.00;44.10;;;15.40;99.90;;;;;;8293672;28;20030;-63
2021/07/26 02:08:29;;;;;;;44.92;42.20;;;15.30;99.90;;;;;;8292999;28;20038;-63
2021/07/26 02:12:29;;;;;;;50.45;47.38;;;15.20;99.90;;;;;;8293001;28;20053;-63
2021/07/26 02:16:30;;;;;;;51.83;48.75;;;15.30;99.90;;;;;;8293192;28;20030;-63
2021/07/26 02:20:30;;;;;;;51.10;48.03;;;15.40;99.90;;;;;;8292414;28;20087;-63
2021/07/26 02:24:31;;;;;;;48.08;45.20;;;15.50;99.90;;;;;;8293022;28;20100;-63
2021/07/26 02:28:31;;;;;;;48.00;45.15;;;15.60;99.90;;;;;;8293063;28;20634;-63
2021/07/26 02:32:32;;;;;;;49.95;46.95;;;15.40;99.90;;;;;;8273810;28;20029;-63
2021/07/26 02:36:33;;;;;;;50.22;47.25;;;15.40;99.90;;;;;;8292383;28;20034;-63
2021/07/26 02:40:33;;;;;;;52.78;49.63;;;15.50;99.90;;;;;;8292281;28;20157;-62
2021/07/26 02:44:35;;;;;;;51.05;48.00;;;15.50;99.90;;;;;;8295816;28;20030;-62
2021/07/26 02:48:37;;;;;;;50.55;47.55;;;15.50;99.90;;;;;;8299193;28;20030;-62
2021/07/26 02:52:38;;;;;;;53.35;50.17;;;15.50;99.90;;;;;;8298546;28;20500;-63
2021/07/26 02:56:41;;;;;;;54.00;50.85;;;15.40;99.90;;;;;;8298678;28;20021;-63
2021/07/26 03:00:45;;;;;;;50.58;47.55;;;15.50;99.90;;;;;;8298596;28;20389;-63
2021/07/26 03:04:45;;;;;;;55.60;52.38;;;15.40;99.90;;;;;;8298804;28;20050;-63
2021/07/26 03:08:46;;;;;;;53.95;50.78;;;15.40;99.90;;;;;;8298478;28;20029;-63
2021/07/26 03:12:46;;;;;;;52.60;49.53;;;15.40;99.90;;;;;;8298203;28;20034;-63
2021/07/26 03:16:47;;;;;;;54.53;51.28;;;15.40;99.90;;;;;;8298302;28;20041;-63
2021/07/26 03:20:48;;;;;;;57.45;54.03;;;15.50;99.90;;;;;;8297346;28;20030;-62
2021/07/26 03:24:49;;;;;;;53.30;50.15;;;15.50;99.90;;;;;;8298205;28;20040;-63
2021/07/26 03:28:49;;;;;;;54.22;51.05;;;15.50;99.90;;;;;;8298046;28;20040;-63
2021/07/26 03:32:50;;;;;;;52.90;49.70;;;15.60;99.90;;;;;;8295428;28;20022;-63
2021/07/26 03:36:51;;;;;;;50.40;47.33;;;15.50;99.90;;;;;;8315735;28;20034;-63
2021/07/26 03:40:52;;;;;;;45.97;43.15;;;15.60;99.90;;;;;;8274608;28;20711;-63
2021/07/26 03:44:55;;;;;;;48.33;45.28;;;15.60;99.90;;;;;;8296152;28;20040;-63
2021/07/26 03:48:56;;;;;;;48.40;45.42;;;15.50;99.90;;;;;;8293594;28;20026;-63
2021/07/26 03:52:58;;;;;;;47.80;44.80;;;15.50;99.90;;;;;;8296190;28;20068;-63
2021/07/26 03:56:58;;;;;;;49.50;46.42;;;15.70;99.90;;;;;;8268986;28;20042;-62
2021/07/26 04:00:59;;;;;;;49.55;46.50;;;15.70;99.90;;;;;;8276160;28;20425;-62
2021/07/26 04:05:00;;;;;;;52.30;49.08;;;15.50;99.90;;;;;;8285464;28;20046;-62
2021/07/26 04:09:01;;;;;;;51.20;48.13;;;15.60;99.90;;;;;;8276833;28;20392;-63
2021/07/26 04:13:02;;;;;;;49.95;46.85;;;15.60;99.90;;;;;;8270126;28;20025;-65
2021/07/26 04:17:03;;;;;;;49.92;46.90;;;15.50;99.90;;;;;;8263635;28;20058;-65
2021/07/26 04:21:11;;;;;;;50.83;47.70;;;15.60;99.90;;;;;;8255909;28;20062;-64
2021/07/26 04:25:12;;;;;;;51.33;48.20;;;15.50;99.90;;;;;;8261528;28;20034;-64
2021/07/26 04:29:12;;;;;;;51.95;48.75;;;15.60;99.90;;;;;;8263992;28;20038;-65
2021/07/26 04:33:13;;;;;;;51.03;47.90;;;15.70;99.90;;;;;;8266138;28;20033;-65
2021/07/26 04:37:13;;;;;;;53.25;50.03;;;15.80;99.90;;;;;;8265860;28;20026;-65
2021/07/26 04:41:14;;;;;;;53.58;50.28;;;15.90;99.90;;;;;;8261654;28;20029;-64
2021/07/26 04:45:14;;;;;;;54.28;50.92;;;15.90;99.90;;;;;;8272294;28;20070;-65
2021/07/26 04:49:15;;;;;;;55.70;52.33;;;16.00;99.90;;;;;;8265621;28;20068;-65
2021/07/26 04:53:15;;;;;;;49.65;46.65;;;15.90;99.90;;;;;;8274212;28;20630;-65
2021/07/26 04:57:16;;;;;;;49.83;46.75;;;15.90;99.90;;;;;;8261261;28;20034;-65
2021/07/26 05:01:17;;;;;;;50.30;47.20;;;16.10;99.90;;;;;;8281842;28;20377;-64
2021/07/26 05:05:17;;;;;;;49.33;46.33;;;16.20;99.90;;;;;;8253368;28;20037;-65
2021/07/26 05:09:18;;;;;;;52.60;49.45;;;16.20;99.90;;;;;;8261838;28;20054;-65
2021/07/26 05:13:19;;;;;;;47.08;44.15;;;16.30;99.90;;;;;;8264025;28;20034;-65
2021/07/26 05:17:23;;;;;;;48.20;45.22;;;16.40;99.90;;;;;;8247000;28;20029;-65
2021/07/26 05:21:24;;;;;;;46.80;43.85;;;16.50;99.90;;;;;;8273852;28;20021;-65
2021/07/26 05:25:25;;;;;;;46.50;43.67;;;16.50;99.90;;;;;;8294000;28;20155;-65
2021/07/26 05:29:26;;;;;;;45.88;43.15;;;16.70;99.90;;;;;;8276700;28;20504;-65
2021/07/26 05:33:27;;;;;;;46.22;43.38;;;16.60;99.90;;;;;;8293175;28;20064;-64
2021/07/26 05:37:27;;;;;;;48.28;45.28;;;16.50;99.90;;;;;;8261066;28;20027;-64
2021/07/26 05:41:28;;;;;;;49.25;46.28;;;16.70;99.90;;;;;;8260869;28;20622;-64
2021/07/26 05:45:28;;;;;;;47.45;44.55;;;16.60;99.90;;;;;;8243020;28;20034;-62
2021/07/26 05:49:29;;;;;;;48.78;45.85;;;16.80;99.90;;;;;;8260960;28;20116;-62
2021/07/26 05:53:30;;;;;;;47.03;44.20;;;17.00;99.90;;;;;;8281498;28;20073;-62
2021/07/26 05:57:35;;;;;;;48.05;45.22;;;17.10;99.90;;;;;;8242931;28;20400;-62
2021/07/26 06:01:48;;;;;;;53.17;50.05;;;17.30;99.90;;;;;;8259810;28;20022;-62
2021/07/26 06:05:49;;;;;;;50.17;47.22;;;17.40;99.90;;;;;;8260669;28;20485;-62
2021/07/26 06:09:50;;;;;;;49.38;46.42;;;17.60;99.90;;;;;;8260455;28;20022;-62
2021/07/26 06:13:51;;;;;;;48.47;45.60;;;17.90;99.90;;;;;;8259771;28;20105;-62
2021/07/26 06:17:52;;;;;;;46.33;43.53;;;18.30;99.90;;;;;;8259400;28;20041;-62
2021/07/26 06:21:54;;;;;;;47.15;44.30;;;18.20;99.90;;;;;;8275258;28;20040;-62
2021/07/26 06:25:55;;;;;;;46.03;43.17;;;18.20;99.90;;;;;;8275258;28;20026;-62
2021/07/26 06:29:55;;;;;;;47.17;44.33;;;18.90;99.90;;;;;;8276393;28;20500;-62
2021/07/26 06:33:56;;;;;;;46.65;43.78;;;19.10;99.90;;;;;;8291780;28;20026;-62
2021/07/26 06:37:57;;;;;;;43.78;41.03;;;19.40;99.90;;;;;;8286641;28;20038;-63
2021/07/26 06:41:57;;;;;;;42.92;40.25;;;19.70;99.90;;;;;;8288275;28;20026;-62
2021/07/26 06:45:58;;;;;;;41.25;38.60;;;19.60;99.90;;;;;;8292257;28;20045;-62
2021/07/26 06:49:59;;;;;;;40.85;38.25;;;19.80;99.90;;;;;;8291688;28;20026;-62
2021/07/26 06:53:59;;;;;;;39.00;36.50;;;20.10;99.90;;;;;;8291518;28;20492;-62
2021/07/26 06:58:00;;;;;;;42.78;40.08;;;20.00;99.90;;;;;;8292114;28;20046;-62
2021/07/26 07:02:00;;;;;;;40.03;37.45;;;19.90;99.90;;;;;;8273228;28;20030;-62
2021/07/26 07:06:12;;;;;;;43.47;40.75;;;19.90;99.90;;;;;;8291855;28;20546;-62
2021/07/26 07:10:13;;;;;;;41.15;38.42;;;19.90;99.90;;;;;;8291345;28;20037;-62
2021/07/26 07:14:13;;;;;;;41.05;38.40;;;20.00;99.90;;;;;;8275051;28;20145;-62
2021/07/26 07:18:14;;;;;;;42.47;39.72;;;20.10;99.90;;;;;;8260966;28;20492;-62
2021/07/26 07:22:20;;;;;;;39.30;36.78;;;20.00;99.90;;;;;;8275894;28;20034;-62
2021/07/26 07:26:22;;;;;;;39.83;37.28;;;20.10;99.90;;;;;;8288052;28;20576;-62
2021/07/26 07:30:22;;;;;;;40.95;38.42;;;20.40;99.90;;;;;;8294154;28;20133;-62
2021/07/26 07:34:23;;;;;;;37.55;35.13;;;20.60;99.90;;;;;;8279512;28;20038;-62
2021/07/26 07:38:23;;;;;;;39.15;36.75;;;20.80;99.90;;;;;;8265181;28;20026;-62
2021/07/26 07:42:24;;;;;;;36.80;34.53;;;21.00;99.90;;;;;;8265415;28;20026;-62
2021/07/26 07:46:24;;;;;;;35.50;33.25;;;21.40;99.90;;;;;;8267859;28;20022;-62
2021/07/26 07:50:25;;;;;;;36.88;34.53;;;21.70;99.90;;;;;;8279718;28;20144;-62
2021/07/26 07:54:26;;;;;;;37.35;35.00;;;21.70;99.90;;;;;;8269504;28;20121;-63
2021/07/26 07:58:26;;;;;;;36.55;34.28;;;21.80;99.90;;;;;;8285314;28;20034;-62
2021/07/26 08:02:27;;;;;;;35.35;33.20;;;22.20;99.90;;;;;;8296223;28;20645;-62
2021/07/26 08:06:27;;;;;;;32.25;30.25;;;22.40;99.90;;;;;;8296215;28;20592;-62
2021/07/26 08:10:28;;;;;;;38.47;35.80;;;22.70;99.90;;;;;;8294955;28;20057;-62
2021/07/26 08:14:28;;;;;;;34.70;32.38;;;23.00;99.90;;;;;;8289719;28;20113;-63
2021/07/26 08:18:29;;;;;;;33.90;31.63;;;23.30;99.90;;;;;;8294256;28;20093;-62
2021/07/26 08:22:30;;;;;;;33.55;31.25;;;23.70;99.90;;;;;;8294104;28;20037;-63
2021/07/26 08:26:30;;;;;;;32.20;30.00;;;23.70;99.90;;;;;;8278221;28;20369;-62
2021/07/26 08:30:34;;;;;;;32.33;30.10;;;23.80;99.90;;;;;;8295679;28;20029;-63
2021/07/26 08:34:34;;;;;;;35.28;32.80;;;23.90;99.90;;;;;;8295187;28;20026;-63
2021/07/26 08:38:35;;;;;;;34.60;32.25;;;23.90;99.90;;;;;;8292414;28;20573;-62
2021/07/26 08:42:35;;;;;;;32.85;30.77;;;23.30;99.90;;;;;;8293856;28;20073;-63
2021/07/26 08:46:41;;;;;;;34.45;32.30;;;22.80;99.90;;;;;;8294583;28;20101;-63
2021/07/26 08:50:44;;;;;;;34.67;32.42;;;22.50;99.90;;;;;;8294250;28;20558;-63
2021/07/26 08:54:47;;;;;;;33.58;31.45;;;22.60;99.90;;;;;;8268205;28;20117;-62
2021/07/26 08:58:47;;;;;;;34.42;32.17;;;23.10;99.90;;;;;;8291582;28;20030;-62
2021/07/26 09:02:48;;;;;;;33.42;31.15;;;23.50;99.90;;;;;;8274294;28;20039;-62
2021/07/26 09:06:52;;;;;;;33.20;30.92;;;23.10;99.90;;;;;;8272256;28;20041;-62
2021/07/26 09:11:00;;;;;;;33.30;31.02;;;23.20;99.90;;;;;;8261525;28;20113;-62
2021/07/26 09:15:02;;;;;;;30.77;28.67;;;23.40;99.90;;;;;;8263951;28;20514;-62
2021/07/26 09:19:05;;;;;;;32.13;29.83;;;24.30;99.90;;;;;;8277130;28;20053;-62
2021/07/26 09:23:15;;;;;;;31.30;29.10;;;24.70;99.90;;;;;;8278974;28;20038;-62
2021/07/26 09:27:16;;;;;;;28.52;26.55;;;25.00;99.90;;;;;;8259003;28;20026;-62
2021/07/26 09:31:16;;;;;;;29.38;27.33;;;24.90;99.90;;;;;;8267103;28;20022;-62
2021/07/26 09:35:25;;;;;;;29.13;27.05;;;24.70;99.90;;;;;;8265704;28;20105;-63
2021/07/26 09:39:27;;;;;;;29.70;27.63;;;25.60;99.90;;;;;;8276424;28;20029;-63
2021/07/26 09:43:28;;;;;;;30.30;28.15;;;26.40;99.90;;;;;;8252614;28;20113;-62
2021/07/26 09:47:30;;;;;;;30.30;28.20;;;26.50;99.90;;;;;;8277769;28;20033;-63
2021/07/26 09:51:31;;;;;;;30.10;28.00;;;26.20;99.90;;;;;;8272286;28;20033;-62
2021/07/26 09:55:32;;;;;;;81.03;63.22;;;26.10;99.90;;;;;;8252877;28;20034;-63
2021/07/26 09:59:33;;;;;;;463.65;356.65;;;26.10;99.90;;;;;;8256204;28;20524;-63
2021/07/26 10:03:38;;;;;;;328.25;253.02;;;26.40;99.90;;;;;;8260092;28;20046;-63
2021/07/26 10:07:39;;;;;;;326.85;248.25;;;26.50;99.90;;;;;;8267238;28;20024;-63
2021/07/26 10:11:39;;;;;;;464.10;356.58;;;26.70;99.90;;;;;;8280505;28;20038;-63
2021/07/26 10:15:40;;;;;;;331.13;235.88;;;26.50;99.90;;;;;;8270603;28;20492;-63
2021/07/26 10:19:40;;;;;;;326.98;240.40;;;26.20;99.90;;;;;;8279828;28;20025;-63
2021/07/26 10:23:46;;;;;;;320.45;239.35;;;26.10;99.90;;;;;;8273026;28;20033;-63
2021/07/26 10:27:51;;;;;;;32.25;30.08;;;26.00;99.90;;;;;;8276014;28;20120;-63
2021/07/26 10:31:52;;;;;;;465.02;344.52;;;26.60;99.90;;;;;;8278504;28;20504;-63
2021/07/26 10:35:54;;;;;;;517.53;455.27;;;27.00;99.90;;;;;;8286130;28;20026;-63
2021/07/26 10:40:21;;;;;;;513.95;444.02;;;27.10;99.90;;;;;;8276142;28;20053;-63
2021/07/26 10:44:21;;;;;;;675.08;608.28;;;27.30;99.90;;;;;;8252263;28;20517;-63
2021/07/26 10:52:22;;;;;;;660.78;595.10;;;27.90;99.90;;;;;;8285281;28;20041;-63
2021/07/26 10:56:23;;;;;;;678.63;612.08;;;28.20;99.90;;;;;;8290984;28;20439;-64
2021/07/26 11:00:24;;;;;;;720.17;652.00;;;28.40;99.90;;;;;;8276975;28;20063;-63
2021/07/26 11:04:37;;;;;;;694.45;627.60;;;28.90;99.90;;;;;;8270653;28;20108;-63
2021/07/26 11:08:38;;;;;;;716.15;648.88;;;29.30;97.80;;;;;;8294712;28;20044;-63
2021/07/26 11:12:52;;;;;;;742.00;672.60;;;29.90;99.90;;;;;;8282786;28;20027;-64
2021/07/26 11:16:53;;;;;;;749.05;679.22;;;30.50;97.30;;;;;;8280287;28;20096;-63
2021/07/26 11:21:03;;;;;;;750.42;680.80;;;30.20;96.70;;;;;;8280392;28;20531;-64
2021/07/26 11:25:08;;;;;;;736.40;667.30;;;30.70;97.60;;;;;;8278075;28;20026;-63
2021/07/26 11:29:11;;;;;;;745.95;676.40;;;31.70;94.70;;;;;;8279842;28;20030;-63
2021/07/26 11:33:12;;;;;;;764.10;693.13;;;32.50;92.70;;;;;;8279888;28;20034;-64
2021/07/26 11:37:14;;;;;;;542.17;486.92;;;34.60;81.20;;;;;;8278457;28;20548;-63
2021/07/26 11:41:20;;;;;;;572.05;515.42;;;33.30;77.80;;;;;;8271767;28;20033;-64
2021/07/26 11:45:21;;;;;;;802.60;730.30;;;34.30;86.30;;;;;;8264302;28;20037;-63
2021/07/26 11:49:23;;;;;;;368.35;330.77;;;36.20;77.80;;;;;;8271317;28;20023;-64
2021/07/26 11:53:30;;;;;;;645.67;584.53;;;37.20;72.10;;;;;;8284289;28;20085;-64
2021/07/26 11:57:30;;;;;;;617.67;560.70;;;38.00;62.60;;;;;;8261793;28;20022;-64
2021/07/26 12:01:31;;;;;;;611.60;554.80;;;40.00;61.00;;;;;;8272314;28;20033;-64
2021/07/26 12:05:33;;;;;;;231.13;208.45;;;39.10;56.70;;;;;;8273955;28;20038;-64
2021/07/26 12:09:35;;;;;;;420.60;380.77;;;38.30;60.40;;;;;;8279302;28;20573;-64
2021/07/26 12:13:39;;;;;;;32.97;30.50;;;38.70;57.70;;;;;;8290216;28;21415;-63
2021/07/26 12:17:40;;;;;;;30.20;28.05;;;36.50;60.00;;;;;;8271586;28;20053;-63
2021/07/26 12:21:44;;;;;;;28.83;26.77;;;35.00;66.60;;;;;;8262860;28;20029;-64
2021/07/26 12:25:51;;;;;;;29.13;26.98;;;34.20;68.90;;;;;;8279019;28;20022;-64
2021/07/26 12:29:56;;;;;;;229.13;206.13;;;34.20;70.00;;;;;;8278550;28;20044;-64
2021/07/26 12:34:21;;;;;;;586.47;529.70;;;33.90;69.60;;;;;;8278063;28;20489;-64
2021/07/26 12:38:21;;;;;;;562.15;506.52;;;33.10;62.90;;;;;;8278216;28;20029;-64
2021/07/26 12:42:22;;;;;;;545.15;489.80;;;32.30;71.80;;;;;;8282952;28;20026;-64
2021/07/26 12:46:32;;;;;;;552.33;497.63;;;32.10;71.00;;;;;;8279066;28;20396;-64
2021/07/26 12:50:35;;;;;;;;;;;32.80;65.60;;;;;;8281737;28;20080;-65
2021/07/26 12:54:43;;;;;;;596.38;539.95;;;33.90;72.10;;;;;;8260651;28;19917;-64
2021/07/26 12:58:43;;;;;;;626.97;569.78;;;36.30;65.20;;;;;;8265118;28;20040;-64
2021/07/26 13:02:44;;;;;;;644.90;586.15;;;38.20;56.70;;;;;;8269108;28;20575;-65
2021/07/26 13:06:45;;;;;;;73.20;65.97;;;39.70;52.20;;;;;;8286063;28;20053;-64
2021/07/26 13:10:47;;;;;;;679.75;619.72;;;42.60;50.10;;;;;;8258896;28;20519;-65
2021/07/26 13:14:47;;;;;;;720.65;660.08;;;43.70;46.50;;;;;;8275905;28;20041;-64
2021/07/26 13:18:48;;;;;;;488.30;446.70;;;44.60;41.30;;;;;;8261864;28;20061;-64
2021/07/26 13:22:48;;;;;;;30.50;28.50;;;43.10;43.30;;;;;;8284306;28;20125;-65
2021/07/26 13:26:49;;;;;;;714.20;653.42;;;44.40;42.30;;;;;;8283578;28;20109;-64
2021/07/26 13:30:50;;;;;;;712.30;651.92;;;43.30;38.70;;;;;;8280784;28;20365;-64
2021/07/26 13:34:50;;;;;;;456.73;416.23;;;42.80;39.70;;;;;;8278360;28;20038;-64
2021/07/26 13:38:51;;;;;;;613.00;554.97;;;40.50;42.40;;;;;;8287543;28;20509;-64
2021/07/26 13:42:51;;;;;;;585.53;528.00;;;35.40;49.20;;;;;;8280677;28;20455;-64
2021/07/26 13:46:53;;;;;;;392.27;352.85;;;34.80;52.80;;;;;;8251982;28;20030;-64
2021/07/26 13:50:53;;;;;;;604.80;547.25;;;35.30;51.40;;;;;;8274317;28;20038;-65
2021/07/26 13:54:54;;;;;;;417.33;378.88;;;37.90;52.20;;;;;;8276284;28;20033;-65
2021/07/26 13:58:54;;;;;;;663.42;604.33;;;42.50;44.70;;;;;;8260579;28;20030;-64
2021/07/26 14:02:55;;;;;;;439.50;399.52;;;42.20;42.00;;;;;;8245080;28;20044;-65
2021/07/26 14:06:56;;;;;;;69.60;62.58;;;38.80;48.00;;;;;;8285773;28;20037;-65
2021/07/26 14:10:56;;;;;;;629.85;570.90;;;36.60;48.90;;;;;;8292371;28;20073;-64
2021/07/26 14:14:57;;;;;;;28.90;26.88;;;35.10;53.90;;;;;;8253798;28;20120;-65
2021/07/26 14:18:58;;;;;;;30.60;28.42;;;36.40;51.80;;;;;;8280260;28;20034;-64
2021/07/26 14:22:58;;;;;;;423.00;383.00;;;37.20;50.90;;;;;;8278575;28;20604;-65
2021/07/26 14:26:59;;;;;;;609.15;550.78;;;36.70;51.40;;;;;;8269748;28;20042;-64
2021/07/26 14:31:00;;;;;;;404.67;365.02;;;34.80;50.90;;;;;;8275064;28;20055;-64
2021/07/26 14:35:01;;;;;;;392.60;353.08;;;33.80;53.10;;;;;;8247502;28;20030;-64
2021/07/26 14:39:02;;;;;;;370.35;331.45;;;32.60;55.90;;;;;;8273653;28;20593;-64
2021/07/26 14:43:03;;;;;;;520.53;464.65;;;30.80;59.60;;;;;;8274298;28;20041;-64
2021/07/26 14:47:04;;;;;;;350.95;312.42;;;30.00;64.00;;;;;;8248858;28;20038;-64
2021/07/26 14:51:04;;;;;;;497.02;421.95;;;29.50;65.60;;;;;;8284586;28;20038;-64
2021/07/26 14:55:05;;;;;;;496.23;409.60;;;29.10;70.00;;;;;;8273921;28;20033;-65
2021/07/26 14:59:07;;;;;;;493.77;403.77;;;28.60;72.40;;;;;;8277337;28;20283;-64
2021/07/26 15:03:08;;;;;;;36.67;34.38;;;27.90;75.40;;;;;;8260838;28;20030;-63
2021/07/26 15:07:09;;;;;;;40.53;38.00;;;26.50;77.60;;;;;;8257598;28;20096;-64
2021/07/26 15:11:10;;;;;;;39.65;37.17;;;24.90;83.40;;;;;;8279637;28;20037;-63
2021/07/26 15:15:11;;;;;;;40.38;37.78;;;24.10;88.10;;;;;;8291016;28;20022;-64
2021/07/26 15:19:11;;;;;;;41.75;39.05;;;23.50;91.50;;;;;;8273584;28;20038;-63
2021/07/26 15:23:14;;;;;;;45.92;42.97;;;23.10;92.50;;;;;;8284388;28;20030;-63
2021/07/26 15:27:14;;;;;;;50.33;47.13;;;22.30;92.70;;;;;;8271741;28;20030;-63
2021/07/26 15:31:15;;;;;;;49.63;46.40;;;21.40;96.30;;;;;;8269358;28;20037;-62
2021/07/26 15:35:16;;;;;;;55.42;52.05;;;20.80;99.90;;;;;;8278103;28;20022;-62
2021/07/26 15:39:16;;;;;;;56.22;52.90;;;19.70;99.90;;;;;;8268403;28;20409;-62
2021/07/26 15:43:17;;;;;;;54.47;51.20;;;19.30;99.90;;;;;;8272866;28;20034;-61
2021/07/26 15:47:17;;;;;;;52.00;48.97;;;18.80;99.90;;;;;;8276827;28;20095;-62
2021/07/26 15:51:19;;;;;;;52.35;49.30;;;18.70;99.90;;;;;;8278154;28;20038;-62
2021/07/26 15:55:19;;;;;;;50.15;47.20;;;18.90;99.90;;;;;;8296087;28;20026;-62
2021/07/26 15:59:20;;;;;;;49.95;47.13;;;19.00;99.90;;;;;;8296787;28;20034;-62
2021/07/26 16:03:20;;;;;;;49.30;46.42;;;19.30;99.90;;;;;;8293643;28;20049;-62
2021/07/26 16:07:21;;;;;;;49.25;46.35;;;19.60;99.90;;;;;;8282897;28;20153;-62
2021/07/26 16:11:23;;;;;;;48.13;45.30;;;20.10;99.90;;;;;;8280206;28;20438;-64
2021/07/26 16:15:23;;;;;;;40.30;37.65;;;20.60;99.90;;;;;;8279773;28;20025;-63
2021/07/26 16:19:24;;;;;;;39.08;36.58;;;22.70;99.90;;;;;;8276956;28;20026;-64
2021/07/26 16:23:25;;;;;;;37.20;34.92;;;26.80;99.90;;;;;;8279619;28;20026;-64
2021/07/26 16:27:26;;;;;;;45.05;42.30;;;29.90;99.90;;;;;;8277974;28;20032;-64
2021/07/26 16:31:30;;;;;;;57.40;53.85;;;31.50;99.90;;;;;;8279885;28;20038;-64
2021/07/26 16:35:31;;;;;;;60.50;56.95;;;30.20;99.90;;;;;;8287824;28;20713;-63
2021/07/26 16:39:31;;;;;;;59.92;56.45;;;27.30;99.90;;;;;;8282237;28;20033;-64
2021/07/26 16:43:32;;;;;;;64.25;60.42;;;25.80;99.90;;;;;;8281511;28;20504;-63
2021/07/26 16:47:32;;;;;;;59.75;56.35;;;24.70;99.90;;;;;;8277260;28;20514;-63
2021/07/26 16:51:34;;;;;;;58.92;55.28;;;24.20;99.90;;;;;;8266186;28;20400;-63
2021/07/26 16:55:35;;;;;;;59.90;56.30;;;23.80;99.90;;;;;;8275977;28;20037;-63
2021/07/26 16:59:35;;;;;;;58.53;54.92;;;23.60;99.90;;;;;;8262786;28;20054;-63
2021/07/26 17:03:36;;;;;;;57.40;53.85;;;23.30;99.90;;;;;;8271268;28;20026;-62
2021/07/26 17:07:36;;;;;;;57.65;54.08;;;22.60;99.90;;;;;;8277869;28;20060;-62
2021/07/26 17:11:38;;;;;;;59.33;55.72;;;22.30;99.90;;;;;;8278341;28;20022;-62
2021/07/26 17:15:39;;;;;;;60.13;56.38;;;22.00;99.90;;;;;;8278596;28;20393;-62
2021/07/26 17:19:40;;;;;;;61.92;58.22;;;21.50;99.90;;;;;;8276446;28;20026;-62
2021/07/26 17:23:41;;;;;;;57.13;53.72;;;21.30;99.90;;;;;;8278305;28;20046;-62
2021/07/26 17:27:41;;;;;;;59.80;56.28;;;21.10;99.90;;;;;;8271592;28;20440;-62
2021/07/26 17:31:43;;;;;;;57.63;54.10;;;20.90;99.90;;;;;;8262102;28;20117;-62
2021/07/26 17:35:43;;;;;;;58.00;54.45;;;20.50;99.90;;;;;;8281838;28;20088;-62
2021/07/26 17:39:44;;;;;;;56.63;53.33;;;20.50;99.90;;;;;;8262921;28;20100;-62
2021/07/26 17:43:45;;;;;;;53.67;50.45;;;20.40;99.90;;;;;;8275473;28;20034;-62
2021/07/26 17:47:45;;;;;;;53.35;50.10;;;20.30;99.90;;;;;;8278641;28;20030;-62
2021/07/26 17:51:46;;;;;;;55.38;52.00;;;20.40;99.90;;;;;;8282895;28;20034;-62
2021/07/26 17:55:47;;;;;;;53.45;50.25;;;20.40;99.90;;;;;;8277907;28;20488;-62
2021/07/26 17:59:47;;;;;;;55.10;51.75;;;20.50;99.90;;;;;;8278329;28;20029;-62
2021/07/26 18:03:48;;;;;;;56.05;52.83;;;20.50;99.90;;;;;;8277577;28;20121;-63
2021/07/26 18:07:50;;;;;;;59.67;56.17;;;20.30;99.90;;;;;;8281995;28;20088;-69
2021/07/26 18:11:51;;;;;;;58.83;55.40;;;20.10;99.90;;;;;;8257860;28;20026;-72
2021/07/26 18:15:51;;;;;;;56.20;53.00;;;19.90;99.90;;;;;;8249479;28;20650;-71
2021/07/26 18:19:52;;;;;;;59.38;55.92;;;19.70;99.90;;;;;;8281283;28;20195;-71
2021/07/26 18:23:52;;;;;;;59.80;56.30;;;19.40;99.90;;;;;;8278905;28;20033;-73
2021/07/26 18:27:53;;;;;;;61.33;57.72;;;19.30;99.90;;;;;;8276722;28;20523;-72
2021/07/26 18:31:54;;;;;;;66.78;62.88;;;19.30;99.90;;;;;;8267309;28;20025;-74
2021/07/26 18:35:54;;;;;;;64.80;61.10;;;19.30;99.90;;;;;;8270636;28;20034;-71
2021/07/26 18:39:55;;;;;;;65.18;61.40;;;19.20;99.90;;;;;;8275451;28;20018;-72
2021/07/26 18:43:56;;;;;;;64.75;60.97;;;19.20;99.90;;;;;;8256855;28;20034;-65
2021/07/26 18:47:56;;;;;;;71.38;67.35;;;19.00;99.90;;;;;;8271291;28;20030;-65
2021/07/26 18:51:57;;;;;;;70.20;66.20;;;19.00;99.90;;;;;;8276062;28;20065;-65
2021/07/26 18:55:57;;;;;;;68.80;64.90;;;19.10;99.90;;;;;;8255526;28;20125;-63
2021/07/26 18:59:58;;;;;;;70.60;66.60;;;19.00;99.90;;;;;;8267196;28;20061;-63
2021/07/26 19:03:59;;;;;;;71.95;67.95;;;18.90;99.90;;;;;;8278570;28;20046;-62
2021/07/26 19:07:59;;;;;;;72.18;67.97;;;18.80;99.90;;;;;;8272575;28;20034;-63
2021/07/26 19:12:00;;;;;;;74.05;69.75;;;18.70;99.90;;;;;;8273710;28;20026;-63
2021/07/26 19:16:01;;;;;;;75.47;71.20;;;18.70;99.90;;;;;;8275217;28;20031;-63
2021/07/26 19:20:05;;;;;;;73.32;69.18;;;18.70;99.90;;;;;;8264210;28;20165;-63
2021/07/26 19:24:06;;;;;;;74.95;70.75;;;18.70;99.90;;;;;;8269967;28;20030;-64
2021/07/26 19:28:06;;;;;;;76.70;72.13;;;18.60;99.90;;;;;;8285653;28;20134;-65
2021/07/26 19:32:07;;;;;;;73.85;69.53;;;18.40;99.90;;;;;;8276311;28;20086;-65
2021/07/26 19:36:07;;;;;;;80.68;75.40;;;18.50;99.90;;;;;;8285938;28;20528;-64
2021/07/26 19:40:09;;;;;;;80.53;75.68;;;18.30;99.90;;;;;;8289391;28;20035;-65
2021/07/26 19:44:09;;;;;;;80.30;75.63;;;18.00;99.90;;;;;;8276146;28;20370;-64
2021/07/26 19:48:10;;;;;;;79.07;74.63;;;17.80;99.90;;;;;;8268875;28;20026;-65
2021/07/26 19:52:13;;;;;;;76.32;71.85;;;17.50;99.90;;;;;;8274037;28;20058;-65
2021/07/26 19:56:14;;;;;;;78.85;74.15;;;17.50;99.90;;;;;;8268617;28;20031;-65
2021/07/26 20:00:15;;;;;;;77.95;73.38;;;17.60;99.90;;;;;;8278383;28;20650;-64
2021/07/26 20:04:15;;;;;;;78.53;73.85;;;17.40;99.90;;;;;;8277277;28;20552;-65
2021/07/26 20:08:16;;;;;;;82.07;77.15;;;17.50;99.90;;;;;;8281163;28;20449;-62
2021/07/26 20:12:16;;;;;;;85.30;80.05;;;17.40;99.90;;;;;;8279444;28;20034;-62
2021/07/26 20:16:17;;;;;;;83.45;78.60;;;17.20;99.90;;;;;;8262229;28;20085;-62
2021/07/26 20:20:18;;;;;;;83.07;77.95;;;16.90;99.90;;;;;;8263534;28;20109;-62
2021/07/26 20:24:19;;;;;;;79.10;74.35;;;16.60;99.90;;;;;;8278628;28;20565;-62
2021/07/26 20:28:19;;;;;;;81.28;76.63;;;16.60;99.90;;;;;;8278768;28;20088;-62